createdAt,value
2024-02-16T00:02:25.122Z,7.78
2024-02-16T00:04:57.426Z,8.63
2024-02-16T00:07:29.863Z,8.02
2024-02-16T00:10:02.129Z,7.78
2024-02-16T00:12:35.057Z,7.32
2024-02-16T00:15:08.185Z,7.68
2024-02-16T00:17:40.510Z,7.82
2024-02-16T00:20:15.383Z,7.28
2024-02-16T00:22:47.937Z,7.80
2024-02-16T00:25:20.257Z,6.82
2024-02-16T00:27:54.460Z,6.90
2024-02-16T00:30:28.591Z,7.28
2024-02-16T00:33:05.074Z,7.05
2024-02-16T00:35:37.346Z,7.38
2024-02-16T00:38:09.502Z,6.65
2024-02-16T00:40:45.040Z,6.53
2024-02-16T00:43:18.957Z,5.97
2024-02-16T00:45:51.572Z,5.95
2024-02-16T00:48:23.917Z,6.47
2024-02-16T00:50:56.434Z,6.82
2024-02-16T00:53:28.583Z,6.38
2024-02-16T00:56:00.756Z,6.28
2024-02-16T00:58:33.113Z,6.35
2024-02-16T01:01:06.074Z,6.88
2024-02-16T01:03:39.368Z,6.35
2024-02-16T01:06:11.874Z,6.43
2024-02-16T01:08:44.321Z,8.17
2024-02-16T01:11:16.547Z,6.85
2024-02-16T01:13:48.932Z,6.20
2024-02-16T01:16:21.062Z,6.63
2024-02-16T01:18:53.675Z,6.50
2024-02-16T01:21:26.004Z,6.13
2024-02-16T01:24:01.017Z,6.82
2024-02-16T01:26:34.132Z,7.72
2024-02-16T01:29:06.930Z,14.60
2024-02-16T01:31:39.513Z,10.50
2024-02-16T01:34:12.311Z,8.45
2024-02-16T01:36:44.822Z,7.95
2024-02-16T01:39:17.100Z,10.70
2024-02-16T01:41:49.290Z,8.52
2024-02-16T01:44:21.573Z,9.07
2024-02-16T01:46:54.216Z,8.18
2024-02-16T01:49:26.710Z,8.37
2024-02-16T01:51:59.019Z,8.88
2024-02-16T01:54:31.290Z,10.27
2024-02-16T01:57:05.785Z,10.85
2024-02-16T01:59:38.435Z,10.73
2024-02-16T02:02:10.679Z,9.82
2024-02-16T02:04:43.515Z,8.45
2024-02-16T02:07:17.850Z,7.82
2024-02-16T02:09:50.167Z,7.30
2024-02-16T02:12:23.812Z,6.85
2024-02-16T02:14:56.063Z,6.57
2024-02-16T02:17:28.645Z,7.30
2024-02-16T02:20:01.230Z,7.55
2024-02-16T02:22:33.525Z,6.57
2024-02-16T02:25:06.362Z,6.70
2024-02-16T02:27:39.572Z,6.03
2024-02-16T02:30:12.491Z,6.38
2024-02-16T02:32:45.014Z,6.38
2024-02-16T02:35:18.940Z,6.28
2024-02-16T02:37:51.169Z,6.15
2024-02-16T02:40:23.761Z,6.80
2024-02-16T02:42:56.058Z,6.63
2024-02-16T02:45:28.669Z,7.00
2024-02-16T02:48:01.589Z,7.23
2024-02-16T02:50:33.920Z,7.25
2024-02-16T02:53:25.090Z,6.82
2024-02-16T02:55:58.090Z,5.78
2024-02-16T02:58:30.494Z,6.30
2024-02-16T03:01:02.683Z,7.55
2024-02-16T03:03:35.329Z,7.05
2024-02-16T03:06:08.818Z,7.20
2024-02-16T03:11:13.484Z,6.80
2024-02-16T03:13:45.936Z,6.43
2024-02-16T03:16:18.295Z,7.05
2024-02-16T03:18:51.305Z,7.95
2024-02-16T03:21:23.787Z,8.40
2024-02-16T03:23:56.247Z,7.37
2024-02-16T03:26:28.959Z,8.25
2024-02-16T03:29:01.069Z,8.20
2024-02-16T03:31:34.763Z,8.63
2024-02-16T03:34:07.104Z,8.38
2024-02-16T03:36:40.149Z,7.63
2024-02-16T03:39:12.498Z,7.65
2024-02-16T03:41:44.707Z,6.97
2024-02-16T03:44:17.579Z,7.70
2024-02-16T03:46:50.400Z,6.60
2024-02-16T03:49:23.905Z,7.05
2024-02-16T03:51:56.270Z,7.28
2024-02-16T03:54:28.588Z,6.80
2024-02-16T03:57:01.928Z,6.65
2024-02-16T03:59:34.145Z,6.95
2024-02-16T04:02:06.413Z,6.05
2024-02-16T04:04:39.029Z,6.13
2024-02-16T04:07:11.386Z,6.27
2024-02-16T04:09:43.617Z,6.70
2024-02-16T04:12:16.170Z,6.00
2024-02-16T04:14:48.615Z,6.10
2024-02-16T04:17:20.914Z,6.18
2024-02-16T04:19:53.161Z,6.05
2024-02-16T04:22:25.979Z,5.82
2024-02-16T04:24:58.078Z,5.70
2024-02-16T04:27:30.621Z,6.28
2024-02-16T04:30:04.056Z,4.97
2024-02-16T04:35:13.347Z,4.80
2024-02-16T04:37:45.847Z,6.25
2024-02-16T04:40:18.091Z,6.57
2024-02-16T04:42:50.246Z,5.30
2024-02-16T04:45:22.937Z,5.10
2024-02-16T04:47:55.168Z,5.07
2024-02-16T04:50:28.409Z,4.65
2024-02-16T04:53:02.897Z,3.83
2024-02-16T04:55:35.573Z,3.80
2024-02-16T04:58:10.931Z,4.00
2024-02-16T05:00:44.211Z,3.95
2024-02-16T05:03:16.756Z,4.15
2024-02-16T05:05:49.399Z,3.90
2024-02-16T05:08:23.792Z,3.70
2024-02-16T05:10:56.654Z,3.65
2024-02-16T05:13:28.868Z,3.45
2024-02-16T05:16:01.129Z,3.72
2024-02-16T05:18:33.842Z,3.38
2024-02-16T05:21:06.352Z,3.90
2024-02-16T05:23:38.714Z,4.45
2024-02-16T05:26:11.829Z,6.25
2024-02-16T05:28:44.054Z,9.02
2024-02-16T05:31:19.969Z,11.63
2024-02-16T05:33:53.034Z,5.30
2024-02-16T05:36:29.015Z,4.30
2024-02-16T05:39:11.110Z,5.22
2024-02-16T05:41:43.565Z,5.82
2024-02-16T05:44:15.850Z,4.82
2024-02-16T05:46:49.229Z,3.92
2024-02-16T05:49:22.116Z,4.60
2024-02-16T05:52:13.023Z,4.13
2024-02-16T05:54:51.458Z,3.70
2024-02-16T05:57:25.822Z,4.00
2024-02-16T05:59:59.776Z,3.88
2024-02-16T06:02:33.777Z,3.65
2024-02-16T06:05:07.404Z,7.03
2024-02-16T06:10:13.417Z,12.90
2024-02-16T06:12:45.795Z,13.17
2024-02-16T06:15:18.387Z,9.25
2024-02-16T06:17:51.769Z,7.67
2024-02-16T06:20:26.829Z,5.95
2024-02-16T06:22:59.358Z,5.28
2024-02-16T06:25:31.821Z,4.57
2024-02-16T06:28:05.999Z,3.83
2024-02-16T06:30:38.311Z,3.47
2024-02-16T06:33:11.560Z,3.15
2024-02-16T06:35:43.869Z,3.35
2024-02-16T06:38:16.064Z,3.22
2024-02-16T06:40:48.457Z,3.15
2024-02-16T06:43:21.787Z,2.97
2024-02-16T06:45:56.591Z,3.13
2024-02-16T06:48:29.150Z,3.50
2024-02-16T06:51:01.870Z,3.03
2024-02-16T06:53:34.329Z,3.17
2024-02-16T06:56:06.690Z,3.35
2024-02-16T06:58:38.887Z,3.22
2024-02-16T07:01:11.245Z,2.78
2024-02-16T07:03:45.491Z,3.30
2024-02-16T07:06:18.175Z,3.10
2024-02-16T07:08:50.634Z,3.03
2024-02-16T07:11:23.286Z,3.17
2024-02-16T07:13:56.050Z,3.47
2024-02-16T07:16:28.205Z,3.30
2024-02-16T07:19:00.749Z,3.25
2024-02-16T07:21:33.323Z,3.72
2024-02-16T07:24:06.009Z,4.75
2024-02-16T07:26:38.327Z,4.80
2024-02-16T07:29:10.566Z,4.15
2024-02-16T07:31:43.191Z,4.63
2024-02-16T07:34:15.793Z,4.57
2024-02-16T07:36:48.618Z,4.63
2024-02-16T07:39:24.012Z,5.80
2024-02-16T07:41:56.391Z,5.88
2024-02-16T07:44:29.777Z,5.50
2024-02-16T07:47:02.560Z,5.18
2024-02-16T07:49:35.005Z,4.88
2024-02-16T07:52:07.718Z,4.22
2024-02-16T07:54:40.449Z,4.28
2024-02-16T07:57:12.800Z,4.93
2024-02-16T07:59:45.248Z,4.88
2024-02-16T08:02:19.070Z,4.65
2024-02-16T08:04:52.608Z,4.13
2024-02-16T08:09:57.440Z,4.18
2024-02-16T08:12:29.856Z,5.40
2024-02-16T08:15:02.666Z,5.30
2024-02-16T08:17:36.733Z,5.25
2024-02-16T08:20:12.403Z,4.38
2024-02-16T08:22:45.420Z,3.88
2024-02-16T08:25:17.722Z,3.47
2024-02-16T08:27:51.159Z,3.17
2024-02-16T08:30:23.510Z,2.70
2024-02-16T08:32:56.583Z,2.50
2024-02-16T08:35:29.613Z,2.50
2024-02-16T08:38:02.756Z,2.40
2024-02-16T08:40:35.551Z,2.73
2024-02-16T08:43:10.486Z,2.83
2024-02-16T08:45:42.930Z,2.70
2024-02-16T08:48:15.529Z,2.22
2024-02-16T08:50:48.827Z,2.25
2024-02-16T08:53:21.082Z,2.65
2024-02-16T08:55:53.273Z,2.00
2024-02-16T08:58:25.512Z,2.45
2024-02-16T09:00:57.788Z,1.67
2024-02-16T09:03:30.564Z,1.87
2024-02-16T09:06:02.979Z,2.03
2024-02-16T09:08:36.830Z,1.77
2024-02-16T09:11:09.275Z,1.80
2024-02-16T09:13:42.459Z,2.00
2024-02-16T09:16:15.339Z,2.03
2024-02-16T09:18:49.725Z,1.63
2024-02-16T09:21:22.143Z,1.73
2024-02-16T09:23:54.525Z,1.90
2024-02-16T09:26:31.491Z,1.65
2024-02-16T09:29:04.379Z,1.40
2024-02-16T09:31:36.601Z,1.37
2024-02-16T09:34:09.064Z,1.40
2024-02-16T09:36:41.571Z,1.60
2024-02-16T09:39:13.950Z,1.30
2024-02-16T09:41:51.604Z,1.40
2024-02-16T09:44:24.347Z,1.50
2024-02-16T09:46:57.422Z,1.40
2024-02-16T09:49:38.617Z,1.48
2024-02-16T09:52:15.992Z,1.30
2024-02-16T09:54:48.671Z,1.45
2024-02-16T09:57:21.229Z,1.40
2024-02-16T09:59:53.528Z,1.33
2024-02-16T10:02:25.857Z,0.90
2024-02-16T10:04:58.419Z,0.90
2024-02-16T10:07:34.489Z,1.20
2024-02-16T10:10:21.799Z,1.20
2024-02-16T10:13:05.483Z,1.55
2024-02-16T10:15:38.237Z,1.25
2024-02-16T10:18:10.674Z,1.03
2024-02-16T10:20:46.012Z,1.20
2024-02-16T10:23:18.358Z,1.60
2024-02-16T10:25:50.670Z,1.75
2024-02-16T10:28:29.070Z,1.83
2024-02-16T10:31:06.768Z,1.65
2024-02-16T10:33:39.676Z,1.58
2024-02-16T10:36:12.553Z,1.30
2024-02-16T10:38:46.927Z,1.00
2024-02-16T10:41:22.073Z,1.05
2024-02-16T10:43:56.317Z,0.90
2024-02-16T10:46:28.847Z,1.10
2024-02-16T10:49:02.026Z,1.13
2024-02-16T10:51:48.392Z,1.05
2024-02-16T10:54:23.870Z,1.10
2024-02-16T10:56:56.866Z,1.13
2024-02-16T10:59:49.289Z,0.90
2024-02-16T11:02:22.251Z,1.10
2024-02-16T11:04:54.882Z,1.08
2024-02-16T11:07:27.530Z,1.10
2024-02-16T11:10:01.566Z,1.17
2024-02-16T11:12:36.863Z,1.50
2024-02-16T11:15:09.782Z,1.30
2024-02-16T11:17:42.310Z,1.15
2024-02-16T11:20:14.686Z,1.35
2024-02-16T11:22:47.282Z,1.88
2024-02-16T11:25:19.667Z,1.60
2024-02-16T11:27:52.788Z,1.20
2024-02-16T11:30:24.956Z,1.60
2024-02-16T11:32:57.309Z,1.70
2024-02-16T11:35:29.556Z,1.17
2024-02-16T11:38:03.202Z,1.63
2024-02-16T11:40:36.401Z,1.33
2024-02-16T11:43:08.668Z,1.60
2024-02-16T11:45:41.131Z,1.63
2024-02-16T11:48:14.292Z,1.20
2024-02-16T11:50:46.535Z,1.40
2024-02-16T11:53:22.488Z,1.60
2024-02-16T11:55:54.770Z,1.50
2024-02-16T11:58:27.583Z,1.75
2024-02-16T12:01:03.904Z,2.13
2024-02-16T12:03:37.159Z,1.88
2024-02-16T12:06:09.715Z,3.40
2024-02-16T12:08:42.512Z,2.33
2024-02-16T12:11:15.809Z,1.70
2024-02-16T12:13:48.005Z,1.70
2024-02-16T12:16:21.618Z,1.85
2024-02-16T12:19:04.483Z,2.50
2024-02-16T12:21:36.865Z,1.40
2024-02-16T12:24:09.431Z,1.67
2024-02-16T12:26:42.554Z,1.55
2024-02-16T12:29:15.517Z,1.75
2024-02-16T12:31:50.656Z,2.03
2024-02-16T12:34:23.382Z,1.70
2024-02-16T12:36:55.877Z,1.80
2024-02-16T12:39:28.206Z,1.73
2024-02-16T12:42:00.498Z,2.10
2024-02-16T12:44:33.147Z,1.73
2024-02-16T12:47:05.446Z,1.77
2024-02-16T12:49:38.055Z,1.83
2024-02-16T12:52:10.404Z,1.63
2024-02-16T12:54:44.757Z,1.83
2024-02-16T12:57:17.288Z,2.00
2024-02-16T12:59:50.590Z,1.80
2024-02-16T13:02:22.810Z,1.75
2024-02-16T13:04:55.946Z,1.85
2024-02-16T13:07:28.333Z,1.98
2024-02-16T13:10:00.789Z,1.92
2024-02-16T13:12:33.681Z,1.63
2024-02-16T13:15:18.912Z,2.17
2024-02-16T13:17:59.393Z,1.70
2024-02-16T13:20:32.124Z,1.77
2024-02-16T13:23:06.773Z,2.00
2024-02-16T13:25:40.293Z,1.75
2024-02-16T13:28:13.052Z,2.00
2024-02-16T13:30:45.217Z,1.92
2024-02-16T13:33:17.531Z,1.67
2024-02-16T13:35:49.892Z,1.75
2024-02-16T13:38:22.420Z,1.80
2024-02-16T13:40:54.522Z,2.13
2024-02-16T13:43:27.682Z,1.90
2024-02-16T13:46:00.052Z,1.88
2024-02-16T13:48:32.457Z,1.58
2024-02-16T13:51:07.020Z,1.55
2024-02-16T13:53:39.615Z,1.55
2024-02-16T13:56:11.884Z,1.58
2024-02-16T13:58:44.488Z,2.13
2024-02-16T14:01:17.211Z,2.30
2024-02-16T14:03:52.375Z,2.38
2024-02-16T14:06:24.932Z,1.88
2024-02-16T14:08:58.776Z,2.05
2024-02-16T14:11:31.272Z,1.95
2024-02-16T14:14:04.221Z,2.22
2024-02-16T14:16:36.375Z,2.42
2024-02-16T14:19:08.865Z,2.35
2024-02-16T14:21:41.229Z,1.90
2024-02-16T14:24:13.455Z,2.40
2024-02-16T14:26:45.617Z,1.67
2024-02-16T14:29:18.698Z,1.92
2024-02-16T14:31:50.974Z,2.03
2024-02-16T14:34:23.475Z,2.15
2024-02-16T14:36:56.096Z,2.30
2024-02-16T14:39:28.627Z,2.47
2024-02-16T14:42:01.243Z,2.25
2024-02-16T14:44:33.457Z,2.10
2024-02-16T14:47:05.898Z,2.22
2024-02-16T14:49:38.523Z,2.80
2024-02-16T14:52:11.262Z,2.63
2024-02-16T14:54:44.761Z,2.40
2024-02-16T14:57:21.398Z,2.40
2024-02-16T14:59:56.974Z,2.50
2024-02-16T15:02:29.249Z,2.33
2024-02-16T15:05:01.767Z,2.45
2024-02-16T15:07:34.398Z,2.50
2024-02-16T15:10:07.605Z,1.90
2024-02-16T15:12:41.616Z,2.53
2024-02-16T15:15:14.903Z,2.45
2024-02-16T15:17:49.996Z,2.30
2024-02-16T15:20:23.631Z,2.17
2024-02-16T15:25:29.483Z,2.33
2024-02-16T15:28:01.751Z,2.25
2024-02-16T15:30:34.039Z,3.97
2024-02-16T15:33:06.559Z,2.72
2024-02-16T15:35:38.846Z,2.75
2024-02-16T15:38:11.284Z,2.08
2024-02-16T15:40:43.954Z,2.83
2024-02-16T15:43:17.385Z,2.78
2024-02-16T15:45:51.273Z,2.83
2024-02-16T15:48:24.031Z,2.70
2024-02-16T15:50:57.215Z,2.80
2024-02-16T15:53:32.638Z,3.50
2024-02-16T15:56:07.388Z,3.28
2024-02-16T15:58:40.605Z,3.45
2024-02-16T16:01:13.191Z,4.65
2024-02-16T16:03:47.669Z,12.20
2024-02-16T16:06:20.315Z,10.82
2024-02-16T16:08:53.216Z,7.95
2024-02-16T16:11:26.539Z,4.45
2024-02-16T16:14:00.082Z,6.35
2024-02-16T16:16:33.421Z,7.18
2024-02-16T16:19:06.348Z,8.15
2024-02-16T16:21:39.036Z,10.75
2024-02-16T16:24:15.445Z,10.23
2024-02-16T16:26:50.054Z,14.75
2024-02-16T16:29:22.821Z,14.18
2024-02-16T16:31:59.733Z,11.30
2024-02-16T16:34:33.921Z,8.82
2024-02-16T16:37:07.279Z,7.55
2024-02-16T16:39:40.315Z,6.03
2024-02-16T16:42:15.145Z,5.57
2024-02-16T16:44:49.241Z,5.22
2024-02-16T16:47:21.753Z,5.60
2024-02-16T16:49:56.367Z,5.50
2024-02-16T16:52:29.014Z,4.97
2024-02-16T16:55:05.165Z,5.37
2024-02-16T16:57:38.152Z,4.97
2024-02-16T17:00:12.188Z,5.45
2024-02-16T17:07:51.203Z,3.63
2024-02-16T17:10:23.379Z,4.03
2024-02-16T17:12:55.950Z,3.30
2024-02-16T17:15:32.214Z,3.20
2024-02-16T17:18:06.654Z,3.55
2024-02-16T17:20:41.673Z,4.28
2024-02-16T17:23:14.273Z,3.60
2024-02-16T17:25:46.848Z,3.10
2024-02-16T17:28:19.076Z,3.45
2024-02-16T17:30:51.678Z,3.47
2024-02-16T17:33:24.018Z,3.60
2024-02-16T17:35:56.715Z,2.87
2024-02-16T17:38:29.044Z,3.30
2024-02-16T17:41:03.809Z,3.47
2024-02-16T17:43:38.018Z,3.20
2024-02-16T17:46:10.190Z,3.45
2024-02-16T17:48:42.557Z,3.72
2024-02-16T17:51:14.938Z,3.95
2024-02-16T17:53:47.812Z,3.83
2024-02-16T17:56:20.986Z,4.00
2024-02-16T17:58:53.910Z,5.90
2024-02-16T18:01:26.237Z,9.90
2024-02-16T18:06:33.545Z,6.32
2024-02-16T18:09:05.912Z,6.70
2024-02-16T18:11:38.141Z,5.68
2024-02-16T18:14:10.830Z,5.65
2024-02-16T18:16:42.988Z,5.83
2024-02-16T18:19:16.885Z,5.32
2024-02-16T18:21:49.253Z,4.80
2024-02-16T18:24:21.917Z,5.30
2024-02-16T18:26:54.110Z,5.55
2024-02-16T18:29:26.636Z,5.32
2024-02-16T18:31:58.958Z,5.00
2024-02-16T18:34:32.976Z,5.40
2024-02-16T18:37:05.541Z,4.90
2024-02-16T18:39:37.738Z,5.90
2024-02-16T18:42:10.404Z,6.22
2024-02-16T18:44:42.913Z,6.55
2024-02-16T18:47:15.026Z,4.75
2024-02-16T18:49:49.623Z,4.95
2024-02-16T18:52:22.507Z,5.05
2024-02-16T18:54:54.805Z,5.23
2024-02-16T18:57:27.046Z,5.88
2024-02-16T18:59:59.313Z,5.18
2024-02-16T19:02:32.181Z,4.93
2024-02-16T19:05:05.043Z,6.03
2024-02-16T19:07:37.437Z,5.65
2024-02-16T19:10:09.869Z,6.47
2024-02-16T19:12:42.132Z,6.22
2024-02-16T19:15:14.442Z,5.38
2024-02-16T19:17:47.799Z,6.53
2024-02-16T19:20:20.047Z,9.48
2024-02-16T19:22:55.390Z,8.43
2024-02-16T19:25:27.612Z,8.52
2024-02-16T19:28:00.564Z,8.48
2024-02-16T19:30:32.668Z,7.50
2024-02-16T19:33:05.522Z,8.52
2024-02-16T19:35:40.385Z,8.25
2024-02-16T19:38:15.389Z,9.55
2024-02-16T19:40:48.032Z,12.07
2024-02-16T19:43:20.486Z,11.98
2024-02-16T19:45:52.769Z,12.20
2024-02-16T19:48:25.741Z,13.60
2024-02-16T19:50:58.644Z,12.32
2024-02-16T19:53:31.135Z,13.17
2024-02-16T19:56:03.493Z,12.30
2024-02-16T19:58:35.810Z,13.60
2024-02-16T20:01:08.307Z,11.20
2024-02-16T20:03:40.815Z,9.52
2024-02-16T20:06:13.118Z,10.65
2024-02-16T20:08:45.403Z,10.43
2024-02-16T20:11:18.423Z,9.95
2024-02-16T20:13:52.338Z,8.20
2024-02-16T20:16:24.705Z,8.50
2024-02-16T20:18:59.085Z,8.82
2024-02-16T20:21:36.081Z,9.80
2024-02-16T20:24:08.984Z,9.68
2024-02-16T20:26:42.098Z,9.48
2024-02-16T20:29:14.263Z,9.13
2024-02-16T20:31:46.407Z,9.65
2024-02-16T20:34:18.715Z,9.95
2024-02-16T20:36:52.784Z,9.73
2024-02-16T20:39:25.038Z,8.90
2024-02-16T20:41:57.287Z,7.97
2024-02-16T20:44:29.621Z,8.95
2024-02-16T20:47:02.006Z,8.32
2024-02-16T20:49:35.098Z,8.97
2024-02-16T20:52:07.364Z,8.80
2024-02-16T20:54:39.804Z,7.68
2024-02-16T20:57:12.970Z,8.57
2024-02-16T20:59:45.988Z,8.80
2024-02-16T21:02:20.333Z,7.53
2024-02-16T21:04:53.266Z,7.18
2024-02-16T21:07:27.140Z,7.30
2024-02-16T21:09:59.697Z,7.65
2024-02-16T21:12:32.218Z,7.63
2024-02-16T21:15:04.973Z,8.02
2024-02-16T21:17:37.595Z,8.57
2024-02-16T21:20:13.107Z,8.50
2024-02-16T21:22:45.679Z,7.18
2024-02-16T21:25:17.852Z,7.65
2024-02-16T21:27:50.364Z,6.88
2024-02-16T21:30:23.029Z,7.63
2024-02-16T21:32:55.513Z,6.20
2024-02-16T21:35:33.490Z,6.35
2024-02-16T21:38:07.547Z,6.38
2024-02-16T21:40:39.769Z,6.13
2024-02-16T21:43:12.024Z,5.72
2024-02-16T21:45:44.892Z,5.40
2024-02-16T21:48:22.984Z,6.18
2024-02-16T21:51:02.066Z,5.45
2024-02-16T21:53:34.433Z,5.45
2024-02-16T21:56:07.218Z,6.20
2024-02-16T21:58:42.678Z,5.45
2024-02-16T22:01:16.273Z,6.05
2024-02-16T22:03:52.329Z,5.95
2024-02-16T22:06:28.201Z,6.38
2024-02-16T22:09:00.921Z,5.47
2024-02-16T22:11:34.002Z,6.22
2024-02-16T22:14:06.449Z,5.72
2024-02-16T22:16:40.674Z,5.80
2024-02-16T22:19:13.103Z,6.35
2024-02-16T22:21:45.944Z,6.50
2024-02-16T22:24:18.145Z,7.00
2024-02-16T22:26:50.259Z,6.80
2024-02-16T22:29:22.476Z,7.80
2024-02-16T22:32:00.162Z,7.07
2024-02-16T22:34:40.741Z,7.80
2024-02-16T22:37:13.029Z,6.70
2024-02-16T22:39:45.514Z,8.18
2024-02-16T22:42:17.822Z,7.63
2024-02-16T22:44:50.526Z,7.47
2024-02-16T22:47:22.960Z,7.75
2024-02-16T22:49:55.642Z,7.90
2024-02-16T22:52:28.101Z,6.53
2024-02-16T22:55:00.996Z,7.82
2024-02-16T22:57:33.342Z,7.50
2024-02-16T23:00:18.837Z,7.63
2024-02-16T23:02:55.669Z,7.03
2024-02-16T23:05:28.327Z,6.85
2024-02-16T23:08:02.362Z,7.95
2024-02-16T23:10:35.307Z,8.20
2024-02-16T23:13:07.764Z,9.30
2024-02-16T23:15:39.958Z,8.20
2024-02-16T23:18:12.341Z,8.30
2024-02-16T23:20:45.513Z,8.57
2024-02-16T23:23:18.130Z,7.80
2024-02-16T23:25:51.229Z,7.40
2024-02-16T23:28:23.537Z,7.88
2024-02-16T23:30:55.921Z,8.32
2024-02-16T23:33:28.267Z,8.63
2024-02-16T23:36:00.560Z,9.45
2024-02-16T23:38:32.894Z,9.93
2024-02-16T23:41:05.738Z,8.00
2024-02-16T23:43:38.353Z,9.07
2024-02-16T23:46:10.996Z,8.55
2024-02-16T23:48:50.898Z,9.50
2024-02-16T23:51:26.213Z,8.13
2024-02-16T23:53:59.035Z,8.23
2024-02-16T23:56:31.476Z,8.77
2024-02-16T23:59:04.971Z,7.88
